Accueil
METAR-TAF:

METAR-TAF

Aéroports :

Vitoria, Espagne

Aéroport de Vitoria-Gasteiz

latitude: 42-53N, longitude: 002-43W, altitude: 513 m

Observation

Le bulletin a été fait il y a 13 minutes, à 15:30 UTC
Vent 8 kt de sud/sud-est, variant entre est/sud-est et sud
Température 21°C
Humidité 43%
Pression 1017 hPa
Visibilité 10 km ou plus
pas de nuages en-dessous de 1500 mètres et pas de cumulonimbus.

METAR: LEVT 211530Z 15008KT 120V180 CAVOK 21/08 Q1017

Heure: 17:43 (15:43 UTC)

Prévision

Le bulletin a été fait il y a 4 heures et 43 minutes, à 11:00 UTC
Prévision valable du 21 à 12 UTC au 22 à 12 UTC
Vent 9 kt de sud/sud-est
Visibilité 10 km ou plus
pas de nuages en-dessous de 1500 mètres et pas de cumulonimbus.

TAF: LEVT 211100Z 2112/2212 16009KT CAVOK TX25/2115Z TN08/2206Z

Observations et prévisions météorologiques de plus de 4000 aéroports (messages METAR et TAF).

Les stations disponibles sont représentées par des disques jaunes et rouges sur la carte.

Passer la souris dessus pour voir le nom de la station.

Cliquer dessus pour voir les observations et prévisions météorologiques.

Pour changer de carte: cliquez sur les boutons verts avec une croix noire pour zoomer, sur le bouton vert avec un tiret pour effectuer un zoom arrière, ou sur les flèches vertes pour les cartes adjacentes.


METAR-TAF: